WAOO/BDJ METAR and TAF weather

Enter ICAO airport designator
Station Type Date Time Source
WAOO METAR 2022/08/13 12:00 UTC NOAA

WAOO 131200Z 07006KT 9999 FEW015 23/22 Q1009


Station Type Date Time Source
WAOO Decoded METAR 2022/08/13 12:00 UTC NOAA

Station name not available
Aug 13, 2022 - 08:00 AM EDT / 2022.08.13 1200 UTC
Wind: from the ENE (070 degrees) at 7 MPH (6 KT):0
Visibility: greater than 7 mile(s):0
Sky conditions: mostly clear
Temperature: 73 F (23 C)
Dew Point: 71 F (22 C)
Relative Humidity: 94%
Pressure (altimeter): 29.80 in. Hg (1009 hPa)
ob: WAOO 131200Z 07006KT 9999 FEW015 23/22 Q1009
cycle: 12

Station Type Date Time Source
WAOO TAF 2022/08/13 12:50 UTC NOAA

TAF WAOO 131100Z 1312/1412 05005KT 9999 SCT016
TEMPO 1316/1320 5000 RA

Example: see airport list